sensor_id;sensor_type;location;lat;lon;timestamp;P1;durP1;ratioP1;P2;durP2;ratioP2
20318;SDS011;10317;47.254;11.314;2023-02-22T00:01:44;8.45;;;4.32;;
20318;SDS011;10317;47.254;11.314;2023-02-22T00:04:16;8.25;;;4.95;;
20318;SDS011;10317;47.254;11.314;2023-02-22T00:06:45;6.38;;;3.90;;
20318;SDS011;10317;47.254;11.314;2023-02-22T00:09:11;6.90;;;4.40;;
20318;SDS011;10317;47.254;11.314;2023-02-22T00:11:37;6.22;;;4.63;;
20318;SDS011;10317;47.254;11.314;2023-02-22T00:14:10;5.30;;;3.97;;
20318;SDS011;10317;47.254;11.314;2023-02-22T00:16:36;6.80;;;4.55;;
20318;SDS011;10317;47.254;11.314;2023-02-22T00:19:02;8.73;;;4.80;;
20318;SDS011;10317;47.254;11.314;2023-02-22T00:21:29;6.30;;;4.47;;
20318;SDS011;10317;47.254;11.314;2023-02-22T00:23:55;7.70;;;5.03;;
20318;SDS011;10317;47.254;11.314;2023-02-22T00:26:21;7.40;;;5.22;;
20318;SDS011;10317;47.254;11.314;2023-02-22T00:28:48;7.90;;;5.00;;
20318;SDS011;10317;47.254;11.314;2023-02-22T00:31:15;8.93;;;5.38;;
20318;SDS011;10317;47.254;11.314;2023-02-22T00:33:42;12.93;;;5.63;;
20318;SDS011;10317;47.254;11.314;2023-02-22T00:36:09;7.57;;;5.03;;
20318;SDS011;10317;47.254;11.314;2023-02-22T00:38:35;7.95;;;5.53;;
20318;SDS011;10317;47.254;11.314;2023-02-22T00:41:01;8.18;;;5.32;;
20318;SDS011;10317;47.254;11.314;2023-02-22T00:43:27;8.32;;;5.35;;
20318;SDS011;10317;47.254;11.314;2023-02-22T00:45:53;6.80;;;4.80;;
20318;SDS011;10317;47.254;11.314;2023-02-22T00:48:18;6.43;;;5.03;;
20318;SDS011;10317;47.254;11.314;2023-02-22T00:50:44;9.57;;;5.75;;
20318;SDS011;10317;47.254;11.314;2023-02-22T00:53:12;7.28;;;5.20;;
20318;SDS011;10317;47.254;11.314;2023-02-22T00:55:38;11.02;;;5.25;;
20318;SDS011;10317;47.254;11.314;2023-02-22T00:58:05;12.10;;;5.65;;
20318;SDS011;10317;47.254;11.314;2023-02-22T01:00:34;11.75;;;5.30;;
20318;SDS011;10317;47.254;11.314;2023-02-22T01:03:01;8.30;;;4.90;;
20318;SDS011;10317;47.254;11.314;2023-02-22T01:05:28;8.55;;;4.82;;
20318;SDS011;10317;47.254;11.314;2023-02-22T01:07:55;5.65;;;5.05;;
20318;SDS011;10317;47.254;11.314;2023-02-22T01:10:22;4.97;;;4.47;;
20318;SDS011;10317;47.254;11.314;2023-02-22T01:12:50;8.63;;;4.93;;
20318;SDS011;10317;47.254;11.314;2023-02-22T01:15:20;13.07;;;5.50;;
20318;SDS011;10317;47.254;11.314;2023-02-22T01:17:48;7.65;;;4.97;;
20318;SDS011;10317;47.254;11.314;2023-02-22T01:20:15;12.52;;;5.28;;
20318;SDS011;10317;47.254;11.314;2023-02-22T01:22:44;9.93;;;5.00;;
20318;SDS011;10317;47.254;11.314;2023-02-22T01:25:11;7.45;;;5.30;;
20318;SDS011;10317;47.254;11.314;2023-02-22T01:27:41;10.45;;;5.43;;
20318;SDS011;10317;47.254;11.314;2023-02-22T01:30:07;6.75;;;5.05;;
20318;SDS011;10317;47.254;11.314;2023-02-22T01:32:35;6.32;;;4.72;;
20318;SDS011;10317;47.254;11.314;2023-02-22T01:35:02;7.45;;;4.80;;
20318;SDS011;10317;47.254;11.314;2023-02-22T01:37:33;9.13;;;5.07;;
20318;SDS011;10317;47.254;11.314;2023-02-22T01:40:02;8.45;;;5.25;;
20318;SDS011;10317;47.254;11.314;2023-02-22T01:42:31;6.70;;;4.82;;
20318;SDS011;10317;47.254;11.314;2023-02-22T01:47:58;5.97;;;4.75;;
20318;SDS011;10317;47.254;11.314;2023-02-22T01:50:26;11.20;;;5.07;;
20318;SDS011;10317;47.254;11.314;2023-02-22T01:52:53;6.00;;;4.55;;
20318;SDS011;10317;47.254;11.314;2023-02-22T01:55:19;7.15;;;4.40;;
20318;SDS011;10317;47.254;11.314;2023-02-22T01:57:45;7.35;;;5.07;;
20318;SDS011;10317;47.254;11.314;2023-02-22T02:00:17;6.68;;;4.45;;
20318;SDS011;10317;47.254;11.314;2023-02-22T02:02:47;8.98;;;4.93;;
20318;SDS011;10317;47.254;11.314;2023-02-22T02:05:16;7.70;;;4.93;;
20318;SDS011;10317;47.254;11.314;2023-02-22T02:13:56;8.45;;;5.28;;
20318;SDS011;10317;47.254;11.314;2023-02-22T02:16:30;9.35;;;4.90;;
20318;SDS011;10317;47.254;11.314;2023-02-22T02:19:08;9.10;;;5.30;;
20318;SDS011;10317;47.254;11.314;2023-02-22T02:33:30;6.75;;;4.30;;
20318;SDS011;10317;47.254;11.314;2023-02-22T02:40:45;6.68;;;4.57;;
20318;SDS011;10317;47.254;11.314;2023-02-22T02:43:30;5.13;;;3.85;;
20318;SDS011;10317;47.254;11.314;2023-02-22T02:46:05;9.23;;;4.55;;
20318;SDS011;10317;47.254;11.314;2023-02-22T02:48:39;13.20;;;6.00;;
20318;SDS011;10317;47.254;11.314;2023-02-22T02:51:09;10.75;;;5.97;;
20318;SDS011;10317;47.254;11.314;2023-02-22T02:53:39;7.75;;;5.70;;
20318;SDS011;10317;47.254;11.314;2023-02-22T02:56:08;6.65;;;5.10;;
20318;SDS011;10317;47.254;11.314;2023-02-22T02:58:42;7.70;;;4.85;;
20318;SDS011;10317;47.254;11.314;2023-02-22T03:01:09;9.23;;;4.80;;
20318;SDS011;10317;47.254;11.314;2023-02-22T03:03:50;4.85;;;4.28;;
20318;SDS011;10317;47.254;11.314;2023-02-22T03:09:12;7.00;;;4.85;;
20318;SDS011;10317;47.254;11.314;2023-02-22T03:12:09;8.40;;;4.90;;
20318;SDS011;10317;47.254;11.314;2023-02-22T03:20:29;5.00;;;4.50;;
20318;SDS011;10317;47.254;11.314;2023-02-22T03:23:19;7.57;;;4.00;;
20318;SDS011;10317;47.254;11.314;2023-02-22T03:26:00;6.82;;;4.72;;
20318;SDS011;10317;47.254;11.314;2023-02-22T03:28:37;11.95;;;5.70;;
20318;SDS011;10317;47.254;11.314;2023-02-22T03:31:08;8.85;;;5.65;;
20318;SDS011;10317;47.254;11.314;2023-02-22T03:33:42;6.43;;;4.97;;
20318;SDS011;10317;47.254;11.314;2023-02-22T03:36:21;7.25;;;4.63;;
20318;SDS011;10317;47.254;11.314;2023-02-22T03:38:53;6.60;;;4.28;;
20318;SDS011;10317;47.254;11.314;2023-02-22T03:41:23;7.93;;;4.80;;
20318;SDS011;10317;47.254;11.314;2023-02-22T03:43:52;7.57;;;4.43;;
20318;SDS011;10317;47.254;11.314;2023-02-22T03:46:25;7.10;;;4.78;;
20318;SDS011;10317;47.254;11.314;2023-02-22T03:51:27;7.22;;;4.60;;
20318;SDS011;10317;47.254;11.314;2023-02-22T03:53:53;10.07;;;4.80;;
20318;SDS011;10317;47.254;11.314;2023-02-22T03:56:21;5.18;;;4.68;;
20318;SDS011;10317;47.254;11.314;2023-02-22T03:58:59;6.82;;;4.72;;
20318;SDS011;10317;47.254;11.314;2023-02-22T04:01:35;9.18;;;4.70;;
20318;SDS011;10317;47.254;11.314;2023-02-22T04:04:01;5.60;;;4.85;;
20318;SDS011;10317;47.254;11.314;2023-02-22T04:06:27;5.10;;;4.60;;
20318;SDS011;10317;47.254;11.314;2023-02-22T04:08:53;8.93;;;5.28;;
20318;SDS011;10317;47.254;11.314;2023-02-22T04:11:19;6.78;;;4.95;;
20318;SDS011;10317;47.254;11.314;2023-02-22T04:13:45;7.90;;;5.13;;
20318;SDS011;10317;47.254;11.314;2023-02-22T04:16:11;8.57;;;4.65;;
20318;SDS011;10317;47.254;11.314;2023-02-22T04:18:36;7.28;;;4.97;;
20318;SDS011;10317;47.254;11.314;2023-02-22T04:21:02;6.00;;;4.22;;
20318;SDS011;10317;47.254;11.314;2023-02-22T04:23:28;6.60;;;5.13;;
20318;SDS011;10317;47.254;11.314;2023-02-22T04:25:53;5.88;;;4.35;;
20318;SDS011;10317;47.254;11.314;2023-02-22T04:28:19;6.25;;;5.10;;
20318;SDS011;10317;47.254;11.314;2023-02-22T04:30:45;6.50;;;4.68;;
20318;SDS011;10317;47.254;11.314;2023-02-22T04:33:11;9.75;;;4.90;;
20318;SDS011;10317;47.254;11.314;2023-02-22T04:35:37;9.48;;;4.75;;
20318;SDS011;10317;47.254;11.314;2023-02-22T04:38:03;5.13;;;4.00;;
20318;SDS011;10317;47.254;11.314;2023-02-22T04:40:30;7.95;;;5.20;;
20318;SDS011;10317;47.254;11.314;2023-02-22T04:42:56;6.13;;;4.95;;
20318;SDS011;10317;47.254;11.314;2023-02-22T04:45:22;6.63;;;4.47;;
20318;SDS011;10317;47.254;11.314;2023-02-22T04:47:47;6.20;;;4.60;;
20318;SDS011;10317;47.254;11.314;2023-02-22T04:50:13;6.25;;;4.75;;
20318;SDS011;10317;47.254;11.314;2023-02-22T04:52:40;7.13;;;4.82;;
20318;SDS011;10317;47.254;11.314;2023-02-22T04:55:08;5.72;;;4.68;;
20318;SDS011;10317;47.254;11.314;2023-02-22T04:57:34;8.50;;;4.93;;
20318;SDS011;10317;47.254;11.314;2023-02-22T05:00:00;8.23;;;5.00;;
20318;SDS011;10317;47.254;11.314;2023-02-22T05:02:25;5.50;;;4.45;;
20318;SDS011;10317;47.254;11.314;2023-02-22T05:04:52;7.88;;;4.45;;
20318;SDS011;10317;47.254;11.314;2023-02-22T05:07:17;8.10;;;4.75;;
20318;SDS011;10317;47.254;11.314;2023-02-22T05:09:43;8.40;;;4.82;;
20318;SDS011;10317;47.254;11.314;2023-02-22T05:12:09;7.45;;;5.20;;
20318;SDS011;10317;47.254;11.314;2023-02-22T05:14:34;6.53;;;4.45;;
20318;SDS011;10317;47.254;11.314;2023-02-22T05:17:00;6.50;;;4.80;;
20318;SDS011;10317;47.254;11.314;2023-02-22T05:19:27;9.05;;;4.75;;
20318;SDS011;10317;47.254;11.314;2023-02-22T05:21:53;6.50;;;4.70;;
20318;SDS011;10317;47.254;11.314;2023-02-22T05:24:20;8.90;;;4.85;;
20318;SDS011;10317;47.254;11.314;2023-02-22T05:26:46;7.60;;;4.68;;
20318;SDS011;10317;47.254;11.314;2023-02-22T05:29:12;5.80;;;4.55;;
20318;SDS011;10317;47.254;11.314;2023-02-22T05:31:38;5.47;;;4.35;;
20318;SDS011;10317;47.254;11.314;2023-02-22T05:34:05;8.27;;;4.57;;
20318;SDS011;10317;47.254;11.314;2023-02-22T05:36:31;7.10;;;4.53;;
20318;SDS011;10317;47.254;11.314;2023-02-22T05:38:57;8.02;;;5.05;;
20318;SDS011;10317;47.254;11.314;2023-02-22T05:41:23;5.50;;;4.28;;
20318;SDS011;10317;47.254;11.314;2023-02-22T05:43:48;5.95;;;4.65;;
20318;SDS011;10317;47.254;11.314;2023-02-22T05:46:14;9.77;;;7.78;;
20318;SDS011;10317;47.254;11.314;2023-02-22T05:48:40;15.70;;;12.63;;
20318;SDS011;10317;47.254;11.314;2023-02-22T05:51:06;12.85;;;9.73;;
20318;SDS011;10317;47.254;11.314;2023-02-22T05:53:34;11.15;;;5.72;;
20318;SDS011;10317;47.254;11.314;2023-02-22T05:56:00;12.43;;;5.55;;
20318;SDS011;10317;47.254;11.314;2023-02-22T05:58:26;14.18;;;6.13;;
20318;SDS011;10317;47.254;11.314;2023-02-22T06:00:52;6.68;;;5.70;;
20318;SDS011;10317;47.254;11.314;2023-02-22T06:03:18;10.57;;;6.97;;
20318;SDS011;10317;47.254;11.314;2023-02-22T06:05:44;7.72;;;5.55;;
20318;SDS011;10317;47.254;11.314;2023-02-22T06:08:11;10.75;;;5.82;;
20318;SDS011;10317;47.254;11.314;2023-02-22T06:10:39;7.63;;;5.18;;
20318;SDS011;10317;47.254;11.314;2023-02-22T06:13:08;8.55;;;5.50;;
20318;SDS011;10317;47.254;11.314;2023-02-22T06:15:34;11.43;;;5.75;;
20318;SDS011;10317;47.254;11.314;2023-02-22T06:17:59;7.50;;;5.43;;
20318;SDS011;10317;47.254;11.314;2023-02-22T06:20:26;8.70;;;4.85;;
20318;SDS011;10317;47.254;11.314;2023-02-22T06:22:53;7.72;;;5.40;;
20318;SDS011;10317;47.254;11.314;2023-02-22T06:25:21;6.25;;;5.53;;
20318;SDS011;10317;47.254;11.314;2023-02-22T06:27:49;8.48;;;5.20;;
20318;SDS011;10317;47.254;11.314;2023-02-22T06:30:15;9.00;;;5.32;;
20318;SDS011;10317;47.254;11.314;2023-02-22T06:32:43;6.15;;;5.45;;
20318;SDS011;10317;47.254;11.314;2023-02-22T06:35:08;7.53;;;5.18;;
20318;SDS011;10317;47.254;11.314;2023-02-22T06:37:34;8.25;;;5.40;;
20318;SDS011;10317;47.254;11.314;2023-02-22T06:40:00;6.20;;;4.85;;
20318;SDS011;10317;47.254;11.314;2023-02-22T06:42:26;6.63;;;5.20;;
20318;SDS011;10317;47.254;11.314;2023-02-22T06:44:52;9.02;;;5.38;;
20318;SDS011;10317;47.254;11.314;2023-02-22T06:47:17;8.82;;;5.55;;
20318;SDS011;10317;47.254;11.314;2023-02-22T06:49:43;6.88;;;5.05;;
20318;SDS011;10317;47.254;11.314;2023-02-22T06:52:09;10.68;;;7.18;;
20318;SDS011;10317;47.254;11.314;2023-02-22T06:54:35;12.73;;;7.80;;
20318;SDS011;10317;47.254;11.314;2023-02-22T06:57:01;10.70;;;7.05;;
20318;SDS011;10317;47.254;11.314;2023-02-22T06:59:27;10.18;;;6.70;;
20318;SDS011;10317;47.254;11.314;2023-02-22T07:01:52;8.45;;;6.05;;
20318;SDS011;10317;47.254;11.314;2023-02-22T07:04:18;9.77;;;6.50;;
20318;SDS011;10317;47.254;11.314;2023-02-22T07:06:45;11.40;;;5.55;;
20318;SDS011;10317;47.254;11.314;2023-02-22T07:09:12;10.40;;;6.38;;
20318;SDS011;10317;47.254;11.314;2023-02-22T07:11:38;6.97;;;5.65;;
20318;SDS011;10317;47.254;11.314;2023-02-22T07:14:04;12.48;;;6.25;;
20318;SDS011;10317;47.254;11.314;2023-02-22T07:16:30;8.85;;;5.68;;
20318;SDS011;10317;47.254;11.314;2023-02-22T07:18:56;8.45;;;5.35;;
20318;SDS011;10317;47.254;11.314;2023-02-22T07:21:21;11.30;;;6.25;;
20318;SDS011;10317;47.254;11.314;2023-02-22T07:23:49;10.85;;;6.15;;
20318;SDS011;10317;47.254;11.314;2023-02-22T07:26:19;9.50;;;5.43;;
20318;SDS011;10317;47.254;11.314;2023-02-22T07:28:45;10.55;;;6.57;;
20318;SDS011;10317;47.254;11.314;2023-02-22T07:31:11;10.40;;;6.40;;
20318;SDS011;10317;47.254;11.314;2023-02-22T07:33:37;26.80;;;11.07;;
20318;SDS011;10317;47.254;11.314;2023-02-22T07:36:03;12.55;;;7.97;;
20318;SDS011;10317;47.254;11.314;2023-02-22T07:38:30;10.20;;;6.70;;
20318;SDS011;10317;47.254;11.314;2023-02-22T07:40:56;11.57;;;6.53;;
20318;SDS011;10317;47.254;11.314;2023-02-22T07:43:23;8.68;;;5.30;;
20318;SDS011;10317;47.254;11.314;2023-02-22T07:45:50;8.50;;;5.60;;
20318;SDS011;10317;47.254;11.314;2023-02-22T07:48:18;10.32;;;6.47;;
20318;SDS011;10317;47.254;11.314;2023-02-22T07:50:46;12.55;;;5.93;;
20318;SDS011;10317;47.254;11.314;2023-02-22T07:53:14;9.98;;;6.93;;
20318;SDS011;10317;47.254;11.314;2023-02-22T07:55:42;10.10;;;6.90;;
20318;SDS011;10317;47.254;11.314;2023-02-22T07:58:08;11.80;;;5.95;;
20318;SDS011;10317;47.254;11.314;2023-02-22T08:00:37;8.65;;;6.22;;
20318;SDS011;10317;47.254;11.314;2023-02-22T08:03:05;10.23;;;6.15;;
20318;SDS011;10317;47.254;11.314;2023-02-22T08:05:32;8.15;;;6.18;;
20318;SDS011;10317;47.254;11.314;2023-02-22T08:08:00;8.30;;;5.80;;
20318;SDS011;10317;47.254;11.314;2023-02-22T08:10:27;7.53;;;5.30;;
20318;SDS011;10317;47.254;11.314;2023-02-22T08:12:53;6.85;;;5.15;;
20318;SDS011;10317;47.254;11.314;2023-02-22T08:15:27;9.90;;;5.30;;
20318;SDS011;10317;47.254;11.314;2023-02-22T08:18:00;7.88;;;4.45;;
20318;SDS011;10317;47.254;11.314;2023-02-22T08:20:28;5.38;;;4.03;;
20318;SDS011;10317;47.254;11.314;2023-02-22T08:22:54;6.30;;;3.90;;
20318;SDS011;10317;47.254;11.314;2023-02-22T08:25:21;5.75;;;3.67;;
20318;SDS011;10317;47.254;11.314;2023-02-22T08:27:49;5.65;;;4.05;;
20318;SDS011;10317;47.254;11.314;2023-02-22T08:30:16;5.75;;;3.80;;
20318;SDS011;10317;47.254;11.314;2023-02-22T08:32:47;4.63;;;3.97;;
20318;SDS011;10317;47.254;11.314;2023-02-22T08:35:17;6.28;;;3.28;;
20318;SDS011;10317;47.254;11.314;2023-02-22T08:37:46;6.70;;;3.75;;
20318;SDS011;10317;47.254;11.314;2023-02-22T08:40:14;4.95;;;3.30;;
20318;SDS011;10317;47.254;11.314;2023-02-22T08:42:42;8.25;;;5.90;;
20318;SDS011;10317;47.254;11.314;2023-02-22T08:45:08;5.93;;;3.80;;
20318;SDS011;10317;47.254;11.314;2023-02-22T08:47:35;3.22;;;2.78;;
20318;SDS011;10317;47.254;11.314;2023-02-22T08:50:00;6.05;;;3.75;;
20318;SDS011;10317;47.254;11.314;2023-02-22T08:52:26;3.83;;;3.13;;
20318;SDS011;10317;47.254;11.314;2023-02-22T08:54:52;4.45;;;3.25;;
20318;SDS011;10317;47.254;11.314;2023-02-22T08:57:19;4.10;;;3.08;;
20318;SDS011;10317;47.254;11.314;2023-02-22T08:59:45;5.90;;;2.97;;
20318;SDS011;10317;47.254;11.314;2023-02-22T09:02:15;4.40;;;3.22;;
20318;SDS011;10317;47.254;11.314;2023-02-22T09:04:44;3.80;;;2.50;;
20318;SDS011;10317;47.254;11.314;2023-02-22T09:07:10;4.68;;;2.90;;
20318;SDS011;10317;47.254;11.314;2023-02-22T09:09:36;4.35;;;3.05;;
20318;SDS011;10317;47.254;11.314;2023-02-22T09:12:02;6.72;;;3.13;;
20318;SDS011;10317;47.254;11.314;2023-02-22T09:14:28;4.03;;;2.50;;
20318;SDS011;10317;47.254;11.314;2023-02-22T09:16:53;2.72;;;2.50;;
20318;SDS011;10317;47.254;11.314;2023-02-22T09:19:19;4.38;;;2.50;;
20318;SDS011;10317;47.254;11.314;2023-02-22T09:21:51;6.43;;;2.50;;
20318;SDS011;10317;47.254;11.314;2023-02-22T09:24:20;6.38;;;2.40;;
20318;SDS011;10317;47.254;11.314;2023-02-22T09:26:47;2.55;;;2.30;;
20318;SDS011;10317;47.254;11.314;2023-02-22T09:29:17;4.47;;;2.45;;
20318;SDS011;10317;47.254;11.314;2023-02-22T09:31:47;4.90;;;2.08;;
20318;SDS011;10317;47.254;11.314;2023-02-22T09:34:14;4.38;;;2.20;;
20318;SDS011;10317;47.254;11.314;2023-02-22T09:36:40;7.35;;;2.50;;
20318;SDS011;10317;47.254;11.314;2023-02-22T09:39:16;2.63;;;2.42;;
20318;SDS011;10317;47.254;11.314;2023-02-22T09:47:24;2.63;;;1.60;;
20318;SDS011;10317;47.254;11.314;2023-02-22T09:50:32;3.80;;;2.20;;
20318;SDS011;10317;47.254;11.314;2023-02-22T09:52:58;3.00;;;2.00;;
20318;SDS011;10317;47.254;11.314;2023-02-22T09:55:38;4.60;;;2.05;;
20318;SDS011;10317;47.254;11.314;2023-02-22T09:58:09;2.22;;;2.13;;
20318;SDS011;10317;47.254;11.314;2023-02-22T10:00:46;1.90;;;1.70;;
20318;SDS011;10317;47.254;11.314;2023-02-22T10:03:23;3.42;;;1.88;;
20318;SDS011;10317;47.254;11.314;2023-02-22T10:05:55;2.60;;;1.77;;
20318;SDS011;10317;47.254;11.314;2023-02-22T10:08:26;3.45;;;1.55;;
20318;SDS011;10317;47.254;11.314;2023-02-22T10:10:59;2.13;;;1.58;;
20318;SDS011;10317;47.254;11.314;2023-02-22T10:13:47;2.45;;;2.25;;
20318;SDS011;10317;47.254;11.314;2023-02-22T10:16:24;2.72;;;1.90;;
20318;SDS011;10317;47.254;11.314;2023-02-22T10:22:10;2.15;;;1.95;;
20318;SDS011;10317;47.254;11.314;2023-02-22T10:25:21;2.92;;;1.90;;
20318;SDS011;10317;47.254;11.314;2023-02-22T10:30:19;4.60;;;2.58;;
20318;SDS011;10317;47.254;11.314;2023-02-22T10:35:39;1.80;;;1.70;;
20318;SDS011;10317;47.254;11.314;2023-02-22T10:38:10;1.60;;;1.50;;
20318;SDS011;10317;47.254;11.314;2023-02-22T10:40:42;1.52;;;1.38;;
20318;SDS011;10317;47.254;11.314;2023-02-22T10:43:11;3.13;;;1.40;;
20318;SDS011;10317;47.254;11.314;2023-02-22T10:45:38;1.67;;;1.58;;
20318;SDS011;10317;47.254;11.314;2023-02-22T10:48:08;1.63;;;1.52;;
20318;SDS011;10317;47.254;11.314;2023-02-22T10:50:41;1.63;;;1.50;;
20318;SDS011;10317;47.254;11.314;2023-02-22T10:53:09;1.50;;;1.40;;
20318;SDS011;10317;47.254;11.314;2023-02-22T10:55:37;3.20;;;1.48;;
20318;SDS011;10317;47.254;11.314;2023-02-22T10:58:41;1.60;;;1.33;;
20318;SDS011;10317;47.254;11.314;2023-02-22T11:01:19;1.90;;;1.50;;
20318;SDS011;10317;47.254;11.314;2023-02-22T11:03:47;2.95;;;1.42;;
20318;SDS011;10317;47.254;11.314;2023-02-22T11:06:24;3.50;;;1.33;;
20318;SDS011;10317;47.254;11.314;2023-02-22T11:08:51;4.20;;;2.30;;
20318;SDS011;10317;47.254;11.314;2023-02-22T11:11:34;1.73;;;1.63;;
20318;SDS011;10317;47.254;11.314;2023-02-22T11:14:01;1.77;;;1.67;;
20318;SDS011;10317;47.254;11.314;2023-02-22T11:19:00;1.50;;;1.40;;
20318;SDS011;10317;47.254;11.314;2023-02-22T11:21:35;2.17;;;1.70;;
20318;SDS011;10317;47.254;11.314;2023-02-22T11:24:03;3.25;;;1.80;;
20318;SDS011;10317;47.254;11.314;2023-02-22T11:26:36;2.78;;;2.00;;
20318;SDS011;10317;47.254;11.314;2023-02-22T11:29:50;2.00;;;1.40;;
20318;SDS011;10317;47.254;11.314;2023-02-22T11:32:01;2.17;;;1.60;;
20318;SDS011;10317;47.254;11.314;2023-02-22T11:34:38;1.65;;;1.55;;
20318;SDS011;10317;47.254;11.314;2023-02-22T11:40:13;4.20;;;1.75;;
20318;SDS011;10317;47.254;11.314;2023-02-22T11:43:05;2.65;;;1.55;;
20318;SDS011;10317;47.254;11.314;2023-02-22T11:45:36;1.58;;;1.23;;
20318;SDS011;10317;47.254;11.314;2023-02-22T11:48:03;1.48;;;1.08;;
20318;SDS011;10317;47.254;11.314;2023-02-22T11:56:03;2.08;;;1.67;;
20318;SDS011;10317;47.254;11.314;2023-02-22T11:58:45;2.90;;;1.40;;
20318;SDS011;10317;47.254;11.314;2023-02-22T12:01:44;1.55;;;1.13;;
20318;SDS011;10317;47.254;11.314;2023-02-22T12:09:47;3.42;;;2.30;;
20318;SDS011;10317;47.254;11.314;2023-02-22T12:18:16;3.63;;;1.20;;
20318;SDS011;10317;47.254;11.314;2023-02-22T12:21:00;1.33;;;1.23;;
20318;SDS011;10317;47.254;11.314;2023-02-22T12:23:38;4.15;;;1.83;;
20318;SDS011;10317;47.254;11.314;2023-02-22T12:26:16;2.75;;;1.30;;
20318;SDS011;10317;47.254;11.314;2023-02-22T12:36:46;1.15;;;1.00;;
20318;SDS011;10317;47.254;11.314;2023-02-22T12:39:27;2.75;;;1.92;;
20318;SDS011;10317;47.254;11.314;2023-02-22T12:42:23;1.30;;;1.20;;
20318;SDS011;10317;47.254;11.314;2023-02-22T12:44:57;1.27;;;0.98;;
20318;SDS011;10317;47.254;11.314;2023-02-22T12:47:42;3.88;;;1.73;;
20318;SDS011;10317;47.254;11.314;2023-02-22T12:50:16;1.85;;;1.48;;
20318;SDS011;10317;47.254;11.314;2023-02-22T12:52:52;1.48;;;1.17;;
20318;SDS011;10317;47.254;11.314;2023-02-22T12:55:28;1.27;;;1.27;;
20318;SDS011;10317;47.254;11.314;2023-02-22T13:01:15;5.50;;;1.33;;
20318;SDS011;10317;47.254;11.314;2023-02-22T13:03:44;4.75;;;1.30;;
20318;SDS011;10317;47.254;11.314;2023-02-22T13:06:23;3.17;;;1.70;;
20318;SDS011;10317;47.254;11.314;2023-02-22T13:14:39;2.58;;;1.50;;
20318;SDS011;10317;47.254;11.314;2023-02-22T13:20:22;5.95;;;1.50;;
20318;SDS011;10317;47.254;11.314;2023-02-22T13:25:47;3.58;;;1.73;;
20318;SDS011;10317;47.254;11.314;2023-02-22T13:31:23;3.05;;;1.80;;
20318;SDS011;10317;47.254;11.314;2023-02-22T13:36:36;4.63;;;1.67;;
20318;SDS011;10317;47.254;11.314;2023-02-22T13:41:58;2.78;;;1.85;;
20318;SDS011;10317;47.254;11.314;2023-02-22T13:53:06;7.90;;;2.13;;
20318;SDS011;10317;47.254;11.314;2023-02-22T13:55:38;5.07;;;2.20;;
20318;SDS011;10317;47.254;11.314;2023-02-22T13:58:09;3.55;;;1.90;;
20318;SDS011;10317;47.254;11.314;2023-02-22T14:06:00;2.45;;;1.60;;
20318;SDS011;10317;47.254;11.314;2023-02-22T14:08:49;5.70;;;2.67;;
20318;SDS011;10317;47.254;11.314;2023-02-22T14:16:28;3.70;;;2.08;;
20318;SDS011;10317;47.254;11.314;2023-02-22T14:19:10;4.15;;;2.63;;
20318;SDS011;10317;47.254;11.314;2023-02-22T14:22:01;2.63;;;2.42;;
20318;SDS011;10317;47.254;11.314;2023-02-22T14:24:27;4.43;;;2.75;;
20318;SDS011;10317;47.254;11.314;2023-02-22T14:27:04;3.35;;;2.50;;
20318;SDS011;10317;47.254;11.314;2023-02-22T14:29:30;7.47;;;2.72;;
20318;SDS011;10317;47.254;11.314;2023-02-22T14:32:06;7.30;;;2.63;;
20318;SDS011;10317;47.254;11.314;2023-02-22T14:37:23;7.60;;;2.97;;
20318;SDS011;10317;47.254;11.314;2023-02-22T14:43:22;3.05;;;2.35;;
20318;SDS011;10317;47.254;11.314;2023-02-22T14:45:35;5.55;;;3.10;;
20318;SDS011;10317;47.254;11.314;2023-02-22T14:51:20;5.43;;;2.47;;
20318;SDS011;10317;47.254;11.314;2023-02-22T14:57:21;4.40;;;2.42;;
20318;SDS011;10317;47.254;11.314;2023-02-22T15:02:47;4.78;;;1.88;;
20318;SDS011;10317;47.254;11.314;2023-02-22T15:05:15;2.42;;;2.20;;
20318;SDS011;10317;47.254;11.314;2023-02-22T15:07:51;2.45;;;2.00;;
20318;SDS011;10317;47.254;11.314;2023-02-22T15:10:46;4.40;;;2.38;;
20318;SDS011;10317;47.254;11.314;2023-02-22T15:13:25;3.45;;;2.35;;
20318;SDS011;10317;47.254;11.314;2023-02-22T15:15:56;2.85;;;2.25;;
20318;SDS011;10317;47.254;11.314;2023-02-22T15:18:29;4.45;;;2.38;;
20318;SDS011;10317;47.254;11.314;2023-02-22T15:21:03;3.95;;;2.50;;
20318;SDS011;10317;47.254;11.314;2023-02-22T15:24:05;3.40;;;2.05;;
20318;SDS011;10317;47.254;11.314;2023-02-22T15:26:41;4.68;;;2.50;;
20318;SDS011;10317;47.254;11.314;2023-02-22T15:29:12;4.38;;;2.00;;
20318;SDS011;10317;47.254;11.314;2023-02-22T15:31:40;2.15;;;1.75;;
20318;SDS011;10317;47.254;11.314;2023-02-22T15:36:39;2.50;;;1.73;;
20318;SDS011;10317;47.254;11.314;2023-02-22T15:39:17;2.08;;;1.98;;
20318;SDS011;10317;47.254;11.314;2023-02-22T15:41:44;3.72;;;1.83;;
20318;SDS011;10317;47.254;11.314;2023-02-22T15:44:09;1.75;;;1.65;;
20318;SDS011;10317;47.254;11.314;2023-02-22T15:46:36;9.00;;;1.65;;
20318;SDS011;10317;47.254;11.314;2023-02-22T15:49:04;3.53;;;1.45;;
20318;SDS011;10317;47.254;11.314;2023-02-22T15:51:31;2.50;;;1.58;;
20318;SDS011;10317;47.254;11.314;2023-02-22T15:53:59;2.88;;;1.65;;
20318;SDS011;10317;47.254;11.314;2023-02-22T15:56:26;3.72;;;2.22;;
20318;SDS011;10317;47.254;11.314;2023-02-22T15:59:08;2.85;;;2.33;;
20318;SDS011;10317;47.254;11.314;2023-02-22T16:01:47;4.43;;;1.80;;
20318;SDS011;10317;47.254;11.314;2023-02-22T16:04:19;4.53;;;2.22;;
20318;SDS011;10317;47.254;11.314;2023-02-22T16:07:01;1.95;;;1.70;;
20318;SDS011;10317;47.254;11.314;2023-02-22T16:09:40;4.68;;;1.88;;
20318;SDS011;10317;47.254;11.314;2023-02-22T16:14:46;2.15;;;1.75;;
20318;SDS011;10317;47.254;11.314;2023-02-22T16:22:55;1.88;;;1.50;;
20318;SDS011;10317;47.254;11.314;2023-02-22T16:28:28;4.65;;;1.63;;
20318;SDS011;10317;47.254;11.314;2023-02-22T16:30:58;2.67;;;1.63;;
20318;SDS011;10317;47.254;11.314;2023-02-22T16:33:23;3.67;;;1.60;;
20318;SDS011;10317;47.254;11.314;2023-02-22T16:35:53;1.88;;;1.77;;
20318;SDS011;10317;47.254;11.314;2023-02-22T16:38:21;2.15;;;1.85;;
20318;SDS011;10317;47.254;11.314;2023-02-22T16:40:52;3.28;;;1.83;;
20318;SDS011;10317;47.254;11.314;2023-02-22T16:43:27;2.05;;;1.70;;
20318;SDS011;10317;47.254;11.314;2023-02-22T16:45:55;5.47;;;1.52;;
20318;SDS011;10317;47.254;11.314;2023-02-22T16:48:25;2.05;;;1.85;;
20318;SDS011;10317;47.254;11.314;2023-02-22T16:51:01;2.28;;;1.83;;
20318;SDS011;10317;47.254;11.314;2023-02-22T16:53:54;1.80;;;1.70;;
20318;SDS011;10317;47.254;11.314;2023-02-22T16:56:22;2.70;;;1.88;;
20318;SDS011;10317;47.254;11.314;2023-02-22T16:58:52;3.88;;;1.60;;
20318;SDS011;10317;47.254;11.314;2023-02-22T17:01:18;2.20;;;1.80;;
20318;SDS011;10317;47.254;11.314;2023-02-22T17:03:45;4.68;;;1.70;;
20318;SDS011;10317;47.254;11.314;2023-02-22T17:06:11;2.20;;;1.70;;
20318;SDS011;10317;47.254;11.314;2023-02-22T17:08:38;2.47;;;1.73;;
20318;SDS011;10317;47.254;11.314;2023-02-22T17:11:05;3.03;;;1.83;;
20318;SDS011;10317;47.254;11.314;2023-02-22T17:13:32;6.68;;;1.73;;
20318;SDS011;10317;47.254;11.314;2023-02-22T17:15:59;2.15;;;1.50;;
20318;SDS011;10317;47.254;11.314;2023-02-22T17:18:27;3.90;;;2.17;;
20318;SDS011;10317;47.254;11.314;2023-02-22T17:20:58;1.75;;;1.65;;
20318;SDS011;10317;47.254;11.314;2023-02-22T17:23:29;2.15;;;1.77;;
20318;SDS011;10317;47.254;11.314;2023-02-22T17:25:59;2.72;;;1.95;;